Time;durP1;ratioP1;P1;durP2;ratioP2;P2;SDS_P1;SDS_P2;PMS_P1;PMS_P2;Temp;Humidity;BMP_temperature;BMP_pressure;BME280_temperature;BME280_humidity;BME280_pressure;Samples;Min_cycle;Max_cycle;Signal;HPM_P1;HPM_P2
2023/03/21 00:00:11;;;;;;;;;;;;;;;8.47;100.00;101574.50;4959887;28;5027;-75
2023/03/21 00:02:37;;;;;;;;;;;;;;;8.46;100.00;101567.69;4952287;28;1356;-76
2023/03/21 00:05:02;;;;;;;;;;;;;;;8.43;100.00;101573.06;4954068;28;2003;-76
2023/03/21 00:07:27;;;;;;;;;;;;;;;8.46;100.00;101570.28;4943107;28;1639;-75
2023/03/21 00:09:52;;;;;;;;;;;;;;;8.47;100.00;101568.53;4959885;28;1851;-76
2023/03/21 00:12:19;;;;;;;;;;;;;;;8.43;100.00;101561.88;4965295;28;2200;-75
2023/03/21 00:14:45;;;;;;;;;;;;;;;8.41;100.00;101569.72;4957925;28;1339;-76
2023/03/21 00:17:10;;;;;;;;;;;;;;;8.43;100.00;101559.28;4959281;28;1319;-76
2023/03/21 00:19:37;;;;;;;;;;;;;;;8.42;100.00;101555.88;4943719;28;1641;-75
2023/03/21 00:22:02;;;;;;;;;;;;;;;8.41;100.00;101558.56;4956278;28;1668;-76
2023/03/21 00:24:27;;;;;;;;;;;;;;;8.42;100.00;101555.88;4956984;28;1886;-76
2023/03/21 00:26:53;;;;;;;;;;;;;;;8.39;100.00;101558.66;4939592;28;1450;-76
2023/03/21 00:29:18;;;;;;;;;;;;;;;8.39;100.00;101561.25;4959074;28;1100;-77
2023/03/21 00:31:43;;;;;;;;;;;;;;;8.41;100.00;101554.22;4951812;28;1102;-76
2023/03/21 00:34:08;;;;;;;;;;;;;;;8.39;100.00;101556.06;4938572;28;1258;-76
2023/03/21 00:36:34;;;;;;;;;;;;;;;8.42;100.00;101545.53;4957333;28;1205;-76
2023/03/21 00:38:59;;;;;;;;;;;;;;;8.41;100.00;101549.03;4958332;28;1097;-75
2023/03/21 00:41:25;;;;;;;;;;;;;;;8.38;100.00;101544.06;4959952;28;1965;-75
2023/03/21 00:43:50;;;;;;;;;;;;;;;8.36;100.00;101545.91;4960517;28;2314;-75
2023/03/21 00:46:16;;;;;;;;;;;;;;;8.35;100.00;101539.03;4954820;28;1777;-75
2023/03/21 00:48:41;;;;;;;;;;;;;;;8.34;100.00;101537.38;4935865;28;1320;-76
2023/03/21 00:51:24;;;;;;;;;;;;;;;8.38;100.00;101538.91;4952401;28;1152;-76
2023/03/21 00:53:50;;;;;;;;;;;;;;;8.34;100.00;101527.06;4949058;28;1314;-76
2023/03/21 00:56:15;;;;;;;;;;;;;;;8.34;100.00;101532.22;4938484;28;1546;-75
2023/03/21 00:58:40;;;;;;;;;;;;;;;8.33;100.00;101530.56;4952575;28;1334;-76
2023/03/21 01:01:05;;;;;;;;;;;;;;;8.32;100.00;101523.75;4963164;28;5024;-76
2023/03/21 01:03:33;;;;;;;;;;;;;;;8.31;100.00;101527.22;4949642;28;1299;-76
2023/03/21 01:06:06;;;;;;;;;;;;;;;8.32;100.00;101522.91;4941546;28;1903;-76
2023/03/21 01:08:35;;;;;;;;;;;;;;;8.29;100.00;101521.31;4956889;28;2016;-75
2023/03/21 01:11:02;;;;;;;;;;;;;;;8.29;100.00;101516.16;4956061;28;1515;-75
2023/03/21 01:13:28;;;;;;;;;;;;;;;8.27;100.00;101510.25;4948747;28;1646;-76
2023/03/21 01:15:55;;;;;;;;;;;;;;;8.28;100.00;101508.50;4944710;28;1642;-76
2023/03/21 01:18:24;;;;;;;;;;;;;;;8.29;100.00;101511.00;4958165;28;1175;-76
2023/03/21 01:20:49;;;;;;;;;;;;;;;8.26;100.00;101498.28;4935142;28;1321;-76
2023/03/21 01:23:15;;;;;;;;;;;;;;;8.26;100.00;101503.44;4961037;28;1688;-77
2023/03/21 01:25:40;;;;;;;;;;;;;;;8.21;100.00;101498.53;4944458;29;1938;-75
2023/03/21 01:28:06;;;;;;;;;;;;;;;8.21;100.00;101501.13;4955193;28;2074;-75
2023/03/21 01:30:31;;;;;;;;;;;;;;;8.20;100.00;101494.31;4956750;28;1367;-76
2023/03/21 01:32:56;;;;;;;;;;;;;;;8.20;100.00;101493.44;4958204;28;1174;-76
2023/03/21 01:35:22;;;;;;;;;;;;;;;8.19;100.00;101487.44;4957879;28;1297;-76
2023/03/21 01:37:48;;;;;;;;;;;;;;;8.19;100.00;101491.78;4943350;28;1193;-76
2023/03/21 01:40:18;;;;;;;;;;;;;;;8.18;100.00;101490.13;4964737;28;1365;-76
2023/03/21 01:42:43;;;;;;;;;;;;;;;8.17;100.00;101489.31;4961389;28;1307;-76
2023/03/21 01:45:27;;;;;;;;;;;;;;;8.17;100.00;101483.31;4953205;28;1882;-76
2023/03/21 01:47:52;;;;;;;;;;;;;;;8.16;100.00;101481.66;4956683;28;1080;-76
2023/03/21 01:50:21;;;;;;;;;;;;;;;8.16;100.00;101481.66;4964808;28;1064;-76
2023/03/21 01:52:48;;;;;;;;;;;;;;;8.13;100.00;101471.50;4949623;28;1217;-76
2023/03/21 01:55:15;;;;;;;;;;;;;;;8.15;100.00;101474.84;4965649;28;1133;-76
2023/03/21 01:57:45;;;;;;;;;;;;;;;8.13;100.00;101466.34;4940321;28;1219;-75
2023/03/21 02:00:11;;;;;;;;;;;;;;;8.13;100.00;101467.16;4961913;28;5095;-76
2023/03/21 02:02:53;;;;;;;;;;;;;;;8.14;100.00;101466.25;4958749;28;1419;-75
2023/03/21 02:05:23;;;;;;;;;;;;;;;8.13;100.00;101461.16;4939715;28;2056;-75
2023/03/21 02:07:51;;;;;;;;;;;;;;;8.12;100.00;101454.34;4956904;28;1440;-76
2023/03/21 02:10:16;;;;;;;;;;;;;;;8.12;100.00;101464.69;4939796;28;1559;-75
2023/03/21 02:12:42;;;;;;;;;;;;;;;8.13;100.00;101461.16;4942187;28;1641;-76
2023/03/21 02:15:07;;;;;;;;;;;;;;;8.14;100.00;101452.47;4945649;29;1809;-76
2023/03/21 02:17:33;;;;;;;;;;;;;;;8.15;100.00;101459.34;4949217;29;1342;-76
2023/03/21 02:20:13;;;;;;;;;;;;;;;8.13;100.00;101450.84;4944827;29;2092;-76
2023/03/21 02:22:51;;;;;;;;;;;;;;;8.14;100.00;101447.31;4942192;29;1583;-75
2023/03/21 02:25:22;;;;;;;;;;;;;;;8.16;100.00;101445.50;4947586;29;1902;-76
2023/03/21 02:27:51;;;;;;;;;;;;;;;8.16;100.00;101435.97;4948281;28;1132;-76
2023/03/21 02:30:19;;;;;;;;;;;;;;;8.17;100.00;101437.63;4946933;29;1348;-75
2023/03/21 02:32:45;;;;;;;;;;;;;;;8.19;100.00;101440.13;4927656;29;1205;-76
2023/03/21 02:35:22;;;;;;;;;;;;;;;8.17;100.00;101431.63;4942853;28;1297;-75
2023/03/21 02:37:56;;;;;;;;;;;;;;;8.18;100.00;101434.13;4949473;29;1382;-75
2023/03/21 02:40:24;;;;;;;;;;;;;;;8.19;100.00;101433.19;4940562;28;1097;-75
2023/03/21 02:43:08;;;;;;;;;;;;;;;8.19;100.00;101430.59;4959126;28;1335;-75
2023/03/21 02:45:48;;;;;;;;;;;;;;;8.20;100.00;101426.25;4939775;29;2003;-76
2023/03/21 02:48:18;;;;;;;;;;;;;;;8.20;100.00;101426.25;4945995;28;1191;-75
2023/03/21 02:50:49;;;;;;;;;;;;;;;8.20;100.00;101428.84;4945998;29;1569;-76
2023/03/21 02:53:16;;;;;;;;;;;;;;;8.19;100.00;101422.03;4963685;28;1647;-76
2023/03/21 02:55:42;;;;;;;;;;;;;;;8.17;100.00;101426.47;4933275;29;1910;-75
2023/03/21 02:58:12;;;;;;;;;;;;;;;8.17;100.00;101421.31;4949173;29;1211;-76
2023/03/21 03:00:39;;;;;;;;;;;;;;;8.16;100.00;101422.22;4962988;28;4916;-75
2023/03/21 03:03:04;;;;;;;;;;;;;;;8.15;100.00;101418.00;4949505;29;1764;-76
2023/03/21 03:05:32;;;;;;;;;;;;;;;8.14;100.00;101416.31;4949829;29;1902;-75
2023/03/21 03:08:10;;;;;;;;;;;;;;;8.14;100.00;101424.06;4933313;29;1426;-76
2023/03/21 03:10:38;;;;;;;;;;;;;;;8.13;100.00;101419.81;4932438;29;1319;-76
2023/03/21 03:13:03;;;;;;;;;;;;;;;8.11;100.00;101414.75;4944690;29;1707;-75
2023/03/21 03:15:44;;;;;;;;;;;;;;;8.11;100.00;101413.94;4948131;29;1496;-76
2023/03/21 03:18:09;;;;;;;;;;;;;;;8.10;100.00;101414.88;4949735;29;1200;-76
2023/03/21 03:20:53;;;;;;;;;;;;;;;8.11;100.00;101411.34;4950436;29;1347;-76
2023/03/21 03:23:24;;;;;;;;;;;;;;;8.12;100.00;101419.00;4945239;28;1935;-76
2023/03/21 03:25:54;;;;;;;;;;;;;;;8.13;100.00;101414.66;4932952;29;1973;-76
2023/03/21 03:28:22;;;;;;;;;;;;;;;8.12;100.00;101411.25;4928455;29;1182;-75
2023/03/21 03:30:48;;;;;;;;;;;;;;;8.12;100.00;101413.00;4931968;28;1481;-76
2023/03/21 03:33:15;;;;;;;;;;;;;;;8.12;100.00;101402.66;4947960;28;1804;-76
2023/03/21 03:35:41;;;;;;;;;;;;;;;8.10;100.00;101399.38;4948605;29;1357;-76
2023/03/21 03:38:07;;;;;;;;;;;;;;;8.12;100.00;101402.66;4947345;29;1386;-75
2023/03/21 03:40:39;;;;;;;;;;;;;;;8.13;100.00;101399.16;4946614;29;1350;-75
2023/03/21 03:43:07;;;;;;;;;;;;;;;8.12;100.00;101393.16;4950127;29;1208;-76
2023/03/21 03:45:42;;;;;;;;;;;;;;;8.11;100.00;101388.09;4948524;29;1952;-76
2023/03/21 03:48:08;;;;;;;;;;;;;;;8.10;100.00;101389.03;4945606;29;1532;-76
2023/03/21 03:50:33;;;;;;;;;;;;;;;8.11;100.00;101375.19;4962194;28;1448;-76
2023/03/21 03:53:00;;;;;;;;;;;;;;;8.13;100.00;101383.66;4962940;28;1505;-77
2023/03/21 03:55:33;;;;;;;;;;;;;;;8.12;100.00;101374.25;4950039;29;1431;-76
2023/03/21 03:57:58;;;;;;;;;;;;;;;8.12;100.00;101377.66;4942824;29;2137;-76
2023/03/21 04:00:24;;;;;;;;;;;;;;;8.12;100.00;101376.84;4931111;29;4938;-76
2023/03/21 04:02:49;;;;;;;;;;;;;;;8.12;100.00;101377.66;4946326;29;1535;-75
2023/03/21 04:05:19;;;;;;;;;;;;;;;8.12;100.00;101376.84;4949548;29;1890;-75
2023/03/21 04:07:45;;;;;;;;;;;;;;;8.09;100.00;101380.44;4950313;29;1589;-76
2023/03/21 04:10:10;;;;;;;;;;;;;;;8.08;100.00;101375.34;4946477;29;1562;-75
2023/03/21 04:12:36;;;;;;;;;;;;;;;8.07;100.00;101374.53;4946322;29;1594;-75
2023/03/21 04:15:01;;;;;;;;;;;;;;;8.08;100.00;101376.19;4949572;29;1236;-76
2023/03/21 04:17:26;;;;;;;;;;;;;;;8.08;100.00;101381.34;4949902;28;1243;-76
2023/03/21 04:19:51;;;;;;;;;;;;;;;8.08;100.00;101370.19;4949137;28;1508;-76
2023/03/21 04:22:17;;;;;;;;;;;;;;;8.09;100.00;101371.88;4949886;28;1369;-76
2023/03/21 04:24:42;;;;;;;;;;;;;;;8.08;100.00;101359.84;4946451;29;1922;-76
2023/03/21 04:27:08;;;;;;;;;;;;;;;8.09;100.00;101366.72;4947707;28;1214;-76
2023/03/21 04:29:33;;;;;;;;;;;;;;;8.09;100.00;101364.94;4944428;29;1156;-75
2023/03/21 04:31:58;;;;;;;;;;;;;;;8.10;100.00;101368.38;4933378;29;1191;-75
2023/03/21 04:34:26;;;;;;;;;;;;;;;8.09;100.00;101366.72;4948210;29;1077;-76
2023/03/21 04:36:53;;;;;;;;;;;;;;;8.09;100.00;101366.72;4948881;29;1465;-76
2023/03/21 04:39:18;;;;;;;;;;;;;;;8.11;100.00;101364.84;4946144;29;1214;-75
2023/03/21 04:41:45;;;;;;;;;;;;;;;8.12;100.00;101362.16;4949913;29;1279;-76
2023/03/21 04:44:11;;;;;;;;;;;;;;;8.11;100.00;101354.50;4931780;28;1998;-75
2023/03/21 04:46:37;;;;;;;;;;;;;;;8.11;100.00;101359.69;4932947;28;1244;-76
2023/03/21 04:49:03;;;;;;;;;;;;;;;8.09;100.00;101364.13;4943172;29;1309;-75
2023/03/21 04:51:28;;;;;;;;;;;;;;;8.07;100.00;101358.19;4932112;29;1546;-76
2023/03/21 04:53:56;;;;;;;;;;;;;;;8.07;100.00;101365.94;4938418;28;2143;-76
2023/03/21 04:56:23;;;;;;;;;;;;;;;8.04;100.00;101348.91;4940812;28;1319;-76
2023/03/21 04:58:48;;;;;;;;;;;;;;;8.04;100.00;101343.75;4937789;29;1156;-76
2023/03/21 05:01:18;;;;;;;;;;;;;;;8.05;100.00;101344.56;4941152;29;4498;-76
2023/03/21 05:03:44;;;;;;;;;;;;;;;8.06;100.00;101341.88;4931664;29;1339;-76
2023/03/21 05:06:09;;;;;;;;;;;;;;;8.07;100.00;101337.53;4943927;29;1894;-76
2023/03/21 05:08:34;;;;;;;;;;;;;;;8.08;100.00;101341.78;4932049;29;1438;-76
2023/03/21 05:11:00;;;;;;;;;;;;;;;8.07;100.00;101337.53;4945910;28;1340;-75
2023/03/21 05:13:26;;;;;;;;;;;;;;;8.06;100.00;101335.88;4944833;29;1524;-76
2023/03/21 05:15:51;;;;;;;;;;;;;;;8.05;100.00;101340.22;4942954;28;1660;-76
2023/03/21 05:18:23;;;;;;;;;;;;;;;8.05;100.00;101340.22;4943530;29;1410;-77
2023/03/21 05:20:52;;;;;;;;;;;;;;;8.05;100.00;101341.97;4945978;29;1488;-76
2023/03/21 05:23:18;;;;;;;;;;;;;;;8.03;100.00;101336.06;4941818;29;1697;-76
2023/03/21 05:25:43;;;;;;;;;;;;;;;8.02;100.00;101334.41;4931698;29;1957;-76
2023/03/21 05:28:08;;;;;;;;;;;;;;;8.01;100.00;101328.41;4947722;29;1255;-76
2023/03/21 05:30:33;;;;;;;;;;;;;;;7.99;100.00;101331.09;4943753;29;1381;-76
2023/03/21 05:32:59;;;;;;;;;;;;;;;7.98;100.00;101333.78;4931721;29;1498;-75
2023/03/21 05:35:24;;;;;;;;;;;;;;;7.96;100.00;101320.94;4942359;28;1441;-75
2023/03/21 05:37:49;;;;;;;;;;;;;;;7.96;100.00;101326.13;4946449;29;1180;-76
2023/03/21 05:40:14;;;;;;;;;;;;;;;7.97;100.00;101322.63;4944757;29;1325;-75
2023/03/21 05:42:40;;;;;;;;;;;;;;;7.96;100.00;101322.69;4944128;29;1268;-76
2023/03/21 05:45:05;;;;;;;;;;;;;;;7.99;100.00;101325.94;4948859;29;1894;-76
2023/03/21 05:47:30;;;;;;;;;;;;;;;7.99;100.00;101325.94;4944488;29;1453;-76
2023/03/21 05:49:56;;;;;;;;;;;;;;;7.99;100.00;101330.28;4944107;29;2336;-76
2023/03/21 05:52:21;;;;;;;;;;;;;;;7.96;100.00;101331.28;4944649;29;1196;-76
2023/03/21 05:54:46;;;;;;;;;;;;;;;7.95;100.00;101329.63;4944968;29;1480;-76
2023/03/21 05:57:11;;;;;;;;;;;;;;;7.94;100.00;101327.97;4930021;29;1620;-75
2023/03/21 05:59:37;;;;;;;;;;;;;;;7.95;100.00;101326.22;4944701;29;1429;-75
2023/03/21 06:02:02;;;;;;;;;;;;;;;7.96;100.00;101325.28;4942749;29;4798;-76
2023/03/21 06:04:28;;;;;;;;;;;;;;;7.96;100.00;101320.94;4945006;29;2317;-76
2023/03/21 06:06:53;;;;;;;;;;;;;;;7.97;100.00;101322.63;4929530;29;1347;-76
2023/03/21 06:09:19;;;;;;;;;;;;;;;7.98;100.00;101318.28;4929366;29;1526;-77
2023/03/21 06:11:52;;;;;;;;;;;;;;;7.98;100.00;101319.13;4929058;28;1588;-76
2023/03/21 06:14:17;;;;;;;;;;;;;;;7.98;100.00;101319.13;4946263;29;1156;-76
2023/03/21 06:16:43;;;;;;;;;;;;;;;7.99;100.00;101315.59;4946014;29;1287;-76
2023/03/21 06:19:08;;;;;;;;;;;;;;;8.02;100.00;101318.91;4946849;29;1386;-76
2023/03/21 06:21:34;;;;;;;;;;;;;;;8.03;100.00;101315.41;4930039;28;1331;-76
2023/03/21 06:23:59;;;;;;;;;;;;;;;8.03;100.00;101315.41;4948805;28;1938;-76
2023/03/21 06:26:24;;;;;;;;;;;;;;;8.04;100.00;101317.09;4951934;29;1117;-76
2023/03/21 06:28:50;;;;;;;;;;;;;;;8.04;100.00;101328.25;4951046;29;1396;-76
2023/03/21 06:31:15;;;;;;;;;;;;;;;8.06;100.00;101330.72;4943328;29;1156;-75
2023/03/21 06:33:41;;;;;;;;;;;;;;;8.06;100.00;101325.56;4947814;29;1482;-76
2023/03/21 06:36:07;;;;;;;;;;;;;;;8.06;100.00;101325.56;4952668;29;1026;-75
2023/03/21 06:38:32;;;;;;;;;;;;;;;8.07;100.00;101332.38;4934256;29;1186;-75
2023/03/21 06:40:57;;;;;;;;;;;;;;;8.08;100.00;101331.44;4930996;29;1483;-76
2023/03/21 06:43:23;;;;;;;;;;;;;;;8.06;100.00;101326.38;4946765;29;971;-75
2023/03/21 06:45:48;;;;;;;;;;;;;;;8.08;100.00;101328.84;4941709;29;2162;-75
2023/03/21 06:48:13;;;;;;;;;;;;;;;8.08;100.00;101328.84;4942946;29;1382;-75
2023/03/21 06:50:39;;;;;;;;;;;;;;;8.10;100.00;101332.19;4946173;29;1105;-75
2023/03/21 06:53:04;;;;;;;;;;;;;;;8.11;100.00;101323.50;4931401;29;1295;-75
2023/03/21 06:55:29;;;;;;;;;;;;;;;8.13;100.00;101324.22;4937501;28;1178;-75
2023/03/21 06:57:55;;;;;;;;;;;;;;;8.14;100.00;101323.28;4941959;29;1039;-75
2023/03/21 07:00:20;;;;;;;;;;;;;;;8.15;100.00;101330.16;4948400;29;4853;-75
2023/03/21 07:02:46;;;;;;;;;;;;;;;8.17;100.00;101323.13;4934026;29;1344;-75
2023/03/21 07:05:11;;;;;;;;;;;;;;;8.18;100.00;101327.34;4932234;29;1972;-75
2023/03/21 07:07:36;;;;;;;;;;;;;;;8.19;100.00;101332.41;4954191;29;1461;-75
2023/03/21 07:10:02;;;;;;;;;;;;;;;8.21;100.00;101329.75;4948479;28;1131;-76
2023/03/21 07:12:27;;;;;;;;;;;;;;;8.22;100.00;101329.66;4933468;28;1403;-75
2023/03/21 07:14:52;;;;;;;;;;;;;;;8.24;100.00;101334.72;4949043;28;1187;-75
2023/03/21 07:17:18;;;;;;;;;;;;;;;8.26;100.00;101338.06;4932328;29;1406;-75
2023/03/21 07:19:43;;;;;;;;;;;;;;;8.27;100.00;101329.38;4960938;28;1449;-75
2023/03/21 07:22:08;;;;;;;;;;;;;;;8.28;100.00;101325.84;4950020;29;1289;-75
2023/03/21 07:24:33;;;;;;;;;;;;;;;8.30;100.00;101343.84;4942409;28;1946;-75
2023/03/21 07:26:58;;;;;;;;;;;;;;;8.31;100.00;101335.97;4948937;29;1702;-76
2023/03/21 07:29:24;;;;;;;;;;;;;;;8.30;100.00;101344.66;4930787;28;1252;-75
2023/03/21 07:31:49;;;;;;;;;;;;;;;8.32;100.00;101342.81;4939164;29;1393;-75
2023/03/21 07:34:15;;;;;;;;;;;;;;;8.33;100.00;101347.06;4947296;28;1379;-75
2023/03/21 07:36:41;;;;;;;;;;;;;;;8.32;100.00;101353.16;4945313;29;1148;-75
2023/03/21 07:39:06;;;;;;;;;;;;;;;8.42;100.00;101343.91;4945501;29;1160;-76
2023/03/21 07:41:32;;;;;;;;;;;;;;;8.35;100.00;101347.78;4945406;29;2027;-75
2023/03/21 07:43:57;;;;;;;;;;;;;;;8.36;100.00;101341.72;4930648;29;1387;-76
2023/03/21 07:46:22;;;;;;;;;;;;;;;8.39;100.00;101354.47;4943488;29;1882;-76
2023/03/21 07:48:47;;;;;;;;;;;;;;;8.38;100.00;101339.88;4945573;29;1711;-75
2023/03/21 07:51:13;;;;;;;;;;;;;;;8.38;100.00;101347.63;4959272;28;1453;-76
2023/03/21 07:53:40;;;;;;;;;;;;;;;8.45;100.00;101342.91;4930243;28;1253;-76
2023/03/21 07:56:06;;;;;;;;;;;;;;;8.41;100.00;101341.44;4949775;29;1406;-76
2023/03/21 07:58:33;;;;;;;;;;;;;;;8.42;100.00;101341.31;4931639;29;1220;-76
2023/03/21 08:00:58;;;;;;;;;;;;;;;8.43;100.00;101330.06;4928153;29;4881;-75
2023/03/21 08:03:25;;;;;;;;;;;;;;;8.42;100.00;101325.81;4947151;29;1430;-75
2023/03/21 08:05:50;;;;;;;;;;;;;;;8.42;100.00;101333.56;4948844;28;1902;-76
2023/03/21 08:08:15;;;;;;;;;;;;;;;8.44;100.00;101329.16;4945316;29;1267;-76
2023/03/21 08:10:41;;;;;;;;;;;;;;;8.45;100.00;101320.47;4928446;29;1298;-76
2023/03/21 08:13:06;;;;;;;;;;;;;;;8.47;100.00;101328.94;4929268;29;1351;-76
2023/03/21 08:15:31;;;;;;;;;;;;;;;8.46;100.00;101324.69;4933224;29;1284;-76
2023/03/21 08:17:57;;;;;;;;;;;;;;;8.46;100.00;101319.53;4946440;29;1477;-76
2023/03/21 08:20:23;;;;;;;;;;;;;;;8.48;100.00;101322.81;4945960;29;1188;-76
2023/03/21 08:22:48;;;;;;;;;;;;;;;8.48;100.00;101317.66;4932604;29;1478;-76
2023/03/21 08:25:14;;;;;;;;;;;;;;;8.50;100.00;101315.81;4932373;29;1957;-76
2023/03/21 08:27:41;;;;;;;;;;;;;;;8.52;100.00;101303.63;4928026;29;1447;-76
2023/03/21 08:30:07;;;;;;;;;;;;;;;8.55;100.00;101312.13;4930424;29;1355;-75
2023/03/21 08:32:32;;;;;;;;;;;;;;;8.57;100.00;101305.06;4930110;29;1497;-75
2023/03/21 08:35:01;;;;;;;;;;;;;;;8.58;100.00;101301.56;4942871;29;1100;-76
2023/03/21 08:37:27;;;;;;;;;;;;;;;8.58;100.00;101299.78;4940072;29;1039;-75
2023/03/21 08:39:52;;;;;;;;;;;;;;;8.59;100.00;101298.03;4943603;29;2237;-76
2023/03/21 08:42:18;;;;;;;;;;;;;;;8.60;100.00;101299.69;4948757;28;1004;-76
2023/03/21 08:44:43;;;;;;;;;;;;;;;8.62;100.00;101303.84;4944641;29;1887;-76
2023/03/21 08:47:09;;;;;;;;;;;;;;;8.64;100.00;101301.16;4931910;29;1453;-76
2023/03/21 08:49:35;;;;;;;;;;;;;;;8.66;100.00;101294.09;4926855;29;1220;-77
2023/03/21 08:52:00;;;;;;;;;;;;;;;8.68;100.00;101297.44;4938739;29;1112;-76
2023/03/21 08:54:25;;;;;;;;;;;;;;;8.69;100.00;101299.09;4947758;29;1132;-76
2023/03/21 08:56:50;;;;;;;;;;;;;;;8.70;100.00;101286.06;4941483;29;1133;-75
2023/03/21 08:59:15;;;;;;;;;;;;;;;8.74;100.00;101281.53;4934717;29;1347;-75
2023/03/21 09:01:41;;;;;;;;;;;;;;;8.75;100.00;101283.16;4931215;29;4948;-75
2023/03/21 09:04:09;;;;;;;;;;;;;;;8.78;100.00;101277.81;4948775;29;1299;-75
2023/03/21 09:06:35;;;;;;;;;;;;;;;8.81;100.00;101272.41;4947794;29;1228;-75
2023/03/21 09:09:00;;;;;;;;;;;;;;;8.82;100.00;101279.25;4936367;29;1533;-76
2023/03/21 09:11:25;;;;;;;;;;;;;;;8.87;100.00;101278.94;4942579;29;1235;-76
2023/03/21 09:13:50;;;;;;;;;;;;;;;8.89;100.00;101282.25;4943355;29;1359;-76
2023/03/21 09:16:15;;;;;;;;;;;;;;;8.89;100.00;101275.34;4931332;29;1529;-76
2023/03/21 09:18:45;;;;;;;;;;;;;;;8.91;100.00;101278.63;4940539;29;1232;-76
2023/03/21 09:21:12;;;;;;;;;;;;;;;8.93;100.00;101279.34;4931257;29;1308;-76
2023/03/21 09:23:38;;;;;;;;;;;;;;;8.95;100.00;101268.91;4931254;29;1343;-75
2023/03/21 09:26:04;;;;;;;;;;;;;;;8.97;100.00;101267.03;4958140;28;1899;-76
2023/03/21 09:28:30;;;;;;;;;;;;;;;8.98;100.00;101258.34;4928834;29;1212;-76
2023/03/21 09:30:57;;;;;;;;;;;;;;;9.00;100.00;101266.81;4942614;29;2026;-76
2023/03/21 09:33:24;;;;;;;;;;;;;;;9.00;100.00;101259.06;4930122;29;1735;-76
2023/03/21 09:35:49;;;;;;;;;;;;;;;9.00;100.00;101259.91;4946710;29;1805;-76
2023/03/21 09:38:15;;;;;;;;;;;;;;;9.03;100.00;101257.09;4943725;29;1474;-75
2023/03/21 09:40:47;;;;;;;;;;;;;;;9.04;100.00;101258.75;4944430;29;1145;-75
2023/03/21 09:43:33;;;;;;;;;;;;;;;9.08;100.00;101258.56;4946253;29;1252;-75
2023/03/21 09:46:04;;;;;;;;;;;;;;;9.12;100.00;101259.97;4922904;29;1887;-75
2023/03/21 09:48:41;;;;;;;;;;;;;;;9.15;100.00;101254.59;4945100;29;1145;-77
2023/03/21 09:51:11;;;;;;;;;;;;;;;9.19;100.00;101246.53;4943973;29;1180;-75
2023/03/21 09:53:39;;;;;;;;;;;;;;;9.24;100.00;101248.81;4946268;29;1193;-76
2023/03/21 09:56:05;;;;;;;;;;;;;;;9.27;100.00;101235.63;4942380;29;1391;-75
2023/03/21 09:58:42;;;;;;;;;;;;;;;9.32;100.00;101234.38;4945370;28;1109;-75
2023/03/21 10:01:21;;;;;;;;;;;;;;;9.37;100.00;101233.25;4943879;29;4904;-76
2023/03/21 10:03:47;;;;;;;;;;;;;;;9.40;100.00;101225.25;4930552;29;1296;-75
2023/03/21 10:06:14;;;;;;;;;;;;;;;9.45;100.00;101229.16;4930842;29;2006;-75
2023/03/21 10:08:41;;;;;;;;;;;;;;;9.45;100.00;101220.56;4947867;29;1272;-75
2023/03/21 10:11:12;;;;;;;;;;;;;;;9.42;100.00;101216.47;4930185;29;1396;-76
2023/03/21 10:13:43;;;;;;;;;;;;;;;9.46;100.00;101224.81;4946753;29;1140;-75
2023/03/21 10:16:12;;;;;;;;;;;;;;;9.45;100.00;101218.81;4945515;29;1104;-76
2023/03/21 10:18:39;;;;;;;;;;;;;;;9.50;100.00;101221.91;4946783;29;1450;-76
2023/03/21 10:21:05;;;;;;;;;;;;;;;9.52;100.00;101227.00;4946808;29;1140;-75
2023/03/21 10:23:30;;;;;;;;;;;;;;;9.52;100.00;101222.66;4930317;29;1376;-76
2023/03/21 10:25:58;;;;;;;;;;;;;;;9.54;100.00;101228.53;4947358;29;1962;-76
2023/03/21 10:28:27;;;;;;;;;;;;;;;9.57;100.00;101225.72;4944432;29;1164;-75
2023/03/21 10:30:54;;;;;;;;;;;;;;;9.58;100.00;101222.22;4928245;28;2036;-76
2023/03/21 10:33:22;;;;;;;;;;;;;;;9.62;100.00;101216.78;4942237;29;1739;-76
2023/03/21 10:35:52;;;;;;;;;;;;;;;9.65;100.00;101211.41;4944466;29;1103;-76
2023/03/21 10:38:18;;;;;;;;;;;;;;;9.67;100.00;101204.34;4944615;29;1083;-76
2023/03/21 10:40:44;;;;;;;;;;;;;;;9.73;100.00;101198.72;4942439;29;1148;-75
2023/03/21 10:43:15;;;;;;;;;;;;;;;9.78;100.00;101201.81;4943810;29;1124;-75
2023/03/21 10:45:41;;;;;;;;;;;;;;;9.87;100.00;101198.56;4943101;29;1890;-75
2023/03/21 10:48:06;;;;;;;;;;;;;;;9.92;100.00;101199.06;4947052;29;1247;-75
2023/03/21 10:50:32;;;;;;;;;;;;;;;9.96;100.00;101203.06;4925897;29;1237;-76
2023/03/21 10:52:59;;;;;;;;;;;;;;;9.97;99.74;101212.50;4939955;28;1099;-76
2023/03/21 10:55:29;;;;;;;;;;;;;;;10.00;99.79;101207.09;4928256;29;1147;-75
2023/03/21 10:58:00;;;;;;;;;;;;;;;10.04;100.00;101213.72;4941166;29;1067;-75
2023/03/21 11:00:28;;;;;;;;;;;;;;;10.08;99.49;101204.75;4929727;29;4913;-76
2023/03/21 11:02:53;;;;;;;;;;;;;;;10.18;100.00;101204.09;4945507;28;1385;-76
2023/03/21 11:05:22;;;;;;;;;;;;;;;10.16;99.38;101200.81;4959369;28;1965;-75
2023/03/21 11:07:55;;;;;;;;;;;;;;;10.18;99.33;101204.09;4944561;28;1331;-75
2023/03/21 11:10:35;;;;;;;;;;;;;;;10.19;98.70;101205.75;4946360;28;1383;-75
2023/03/21 11:13:02;;;;;;;;;;;;;;;10.21;99.10;101204.69;4941877;28;2305;-75
2023/03/21 11:15:31;;;;;;;;;;;;;;;10.29;99.42;101211.94;4940887;28;1712;-76
2023/03/21 11:17:57;;;;;;;;;;;;;;;10.30;98.85;101208.41;4942148;28;2351;-76
2023/03/21 11:20:22;;;;;;;;;;;;;;;10.34;98.75;101209.84;4942953;28;2459;-75
2023/03/21 11:22:48;;;;;;;;;;;;;;;10.41;99.31;101202.41;4940712;28;1785;-76
2023/03/21 11:25:39;;;;;;;;;;;;;;;10.48;98.59;101201.84;4945209;28;1899;-75
2023/03/21 11:28:07;;;;;;;;;;;;;;;10.52;97.85;101185.09;4940072;28;2109;-76
2023/03/21 11:30:32;;;;;;;;;;;;;;;10.57;97.54;101185.59;4938873;28;1680;-75
2023/03/21 11:33:02;;;;;;;;;;;;;;;10.62;97.18;101186.06;4941251;28;2185;-77
2023/03/21 11:35:31;;;;;;;;;;;;;;;10.61;97.09;101176.66;4941953;28;1764;-76
2023/03/21 11:37:56;;;;;;;;;;;;;;;10.64;96.90;101180.75;4938403;28;2062;-76
2023/03/21 11:40:24;;;;;;;;;;;;;;;10.65;96.11;101192.78;4937883;28;1787;-76
2023/03/21 11:42:54;;;;;;;;;;;;;;;10.70;97.38;101200.22;4924159;29;1674;-76
2023/03/21 11:45:35;;;;;;;;;;;;;;;10.75;95.64;101190.31;4939649;28;1965;-76
2023/03/21 11:48:02;;;;;;;;;;;;;;;10.74;95.79;101180.88;4942260;29;1962;-77
2023/03/21 11:50:33;;;;;;;;;;;;;;;10.74;95.40;101175.69;4927929;28;1808;-76
2023/03/21 11:53:10;;;;;;;;;;;;;;;10.76;95.07;101173.81;4925268;28;1905;-76
2023/03/21 11:55:39;;;;;;;;;;;;;;;10.79;94.53;101189.16;4939410;28;1874;-75
2023/03/21 11:58:04;;;;;;;;;;;;;;;10.83;94.91;101172.38;4940285;28;1882;-75
2023/03/21 12:00:35;;;;;;;;;;;;;;;10.88;94.51;101162.47;4929837;29;4946;-75
2023/03/21 12:03:03;;;;;;;;;;;;;;;10.93;94.79;101170.72;4936107;28;1458;-75
2023/03/21 12:05:36;;;;;;;;;;;;;;;11.00;94.49;101156.31;4951054;28;1965;-76
2023/03/21 12:08:13;;;;;;;;;;;;;;;11.05;93.37;101168.94;4949739;29;1344;-75
2023/03/21 12:10:51;;;;;;;;;;;;;;;11.12;92.95;101170.94;4944628;28;1277;-74
2023/03/21 12:13:36;;;;;;;;;;;;;;;11.19;92.59;101163.53;4949895;29;1581;-76
2023/03/21 12:16:18;;;;;;;;;;;;;;;11.13;91.48;101167.41;4943806;29;1383;-75
2023/03/21 12:18:58;;;;;;;;;;;;;;;11.17;91.91;101163.63;4945631;29;1464;-75
2023/03/21 12:21:30;;;;;;;;;;;;;;;11.20;92.28;101161.75;4945711;28;1322;-75
2023/03/21 12:23:55;;;;;;;;;;;;;;;11.23;91.93;101156.28;4950460;29;2051;-75
2023/03/21 12:26:26;;;;;;;;;;;;;;;11.25;91.18;101141.44;4944561;29;1894;-75
2023/03/21 12:29:10;;;;;;;;;;;;;;;11.28;90.85;101143.78;4948595;29;1406;-75
2023/03/21 12:31:36;;;;;;;;;;;;;;;11.35;90.41;101134.53;4944783;28;1434;-76
2023/03/21 12:34:07;;;;;;;;;;;;;;;11.33;90.25;101136.44;4947340;29;1199;-75
2023/03/21 12:36:50;;;;;;;;;;;;;;;11.36;88.74;101137.03;4945266;29;1291;-75
2023/03/21 12:39:16;;;;;;;;;;;;;;;11.35;89.55;101144.94;4946192;29;1267;-75
2023/03/21 12:41:43;;;;;;;;;;;;;;;11.34;89.25;101128.53;4932609;28;1303;-75
2023/03/21 12:44:11;;;;;;;;;;;;;;;11.51;86.44;101134.97;4956890;28;1413;-75
2023/03/21 12:46:44;;;;;;;;;;;;;;;11.38;88.62;101134.31;4959409;28;1961;-76
2023/03/21 12:49:09;;;;;;;;;;;;;;;11.40;87.28;101125.44;4942680;28;1387;-76